sensor_id;sensor_type;location;lat;lon;timestamp;P1;durP1;ratioP1;P2;durP2;ratioP2
70829;SDS011;58451;51.550;7.208;2022-09-28T00:01:20;12.20;;;4.90;;
70829;SDS011;58451;51.550;7.208;2022-09-28T00:03:50;12.40;;;5.20;;
70829;SDS011;58451;51.550;7.208;2022-09-28T00:06:25;13.20;;;6.20;;
70829;SDS011;58451;51.550;7.208;2022-09-28T00:08:54;12.60;;;5.20;;
70829;SDS011;58451;51.550;7.208;2022-09-28T00:11:23;11.10;;;4.40;;
70829;SDS011;58451;51.550;7.208;2022-09-28T00:13:56;11.50;;;4.10;;
70829;SDS011;58451;51.550;7.208;2022-09-28T00:16:34;12.60;;;4.60;;
70829;SDS011;58451;51.550;7.208;2022-09-28T00:19:11;11.30;;;4.40;;
70829;SDS011;58451;51.550;7.208;2022-09-28T00:21:40;12.80;;;5.30;;
70829;SDS011;58451;51.550;7.208;2022-09-28T00:24:12;12.80;;;5.70;;
70829;SDS011;58451;51.550;7.208;2022-09-28T00:29:29;11.30;;;4.40;;
70829;SDS011;58451;51.550;7.208;2022-09-28T00:32:03;11.00;;;4.00;;
70829;SDS011;58451;51.550;7.208;2022-09-28T00:34:35;13.20;;;4.00;;
70829;SDS011;58451;51.550;7.208;2022-09-28T00:37:07;10.70;;;4.60;;
70829;SDS011;58451;51.550;7.208;2022-09-28T00:39:35;11.10;;;4.00;;
70829;SDS011;58451;51.550;7.208;2022-09-28T00:44:54;9.10;;;3.20;;
70829;SDS011;58451;51.550;7.208;2022-09-28T00:47:35;10.30;;;3.80;;
70829;SDS011;58451;51.550;7.208;2022-09-28T00:55:48;10.20;;;4.00;;
70829;SDS011;58451;51.550;7.208;2022-09-28T00:58:25;10.70;;;3.80;;
70829;SDS011;58451;51.550;7.208;2022-09-28T01:00:56;10.50;;;3.80;;
70829;SDS011;58451;51.550;7.208;2022-09-28T01:03:27;10.10;;;3.10;;
70829;SDS011;58451;51.550;7.208;2022-09-28T01:05:57;11.40;;;3.60;;
70829;SDS011;58451;51.550;7.208;2022-09-28T01:08:26;10.90;;;4.00;;
70829;SDS011;58451;51.550;7.208;2022-09-28T01:10:56;10.90;;;3.50;;
70829;SDS011;58451;51.550;7.208;2022-09-28T01:13:26;9.70;;;3.30;;
70829;SDS011;58451;51.550;7.208;2022-09-28T01:19:16;8.90;;;2.70;;
70829;SDS011;58451;51.550;7.208;2022-09-28T01:25:44;11.20;;;3.60;;
70829;SDS011;58451;51.550;7.208;2022-09-28T01:28:17;9.20;;;3.30;;
70829;SDS011;58451;51.550;7.208;2022-09-28T01:33:45;8.40;;;2.60;;
70829;SDS011;58451;51.550;7.208;2022-09-28T01:36:24;6.70;;;2.00;;
70829;SDS011;58451;51.550;7.208;2022-09-28T01:39:00;7.90;;;2.50;;
70829;SDS011;58451;51.550;7.208;2022-09-28T01:41:33;8.10;;;2.10;;
70829;SDS011;58451;51.550;7.208;2022-09-28T01:44:09;8.00;;;2.50;;
70829;SDS011;58451;51.550;7.208;2022-09-28T01:46:47;7.70;;;2.40;;
70829;SDS011;58451;51.550;7.208;2022-09-28T01:49:19;8.60;;;2.20;;
70829;SDS011;58451;51.550;7.208;2022-09-28T01:51:58;8.90;;;2.70;;
70829;SDS011;58451;51.550;7.208;2022-09-28T01:54:53;10.90;;;3.20;;
70829;SDS011;58451;51.550;7.208;2022-09-28T01:57:39;8.70;;;2.40;;
70829;SDS011;58451;51.550;7.208;2022-09-28T02:00:13;7.50;;;2.40;;
70829;SDS011;58451;51.550;7.208;2022-09-28T02:03:11;10.10;;;2.90;;
70829;SDS011;58451;51.550;7.208;2022-09-28T02:05:50;9.70;;;2.50;;
70829;SDS011;58451;51.550;7.208;2022-09-28T02:08:31;7.50;;;2.10;;
70829;SDS011;58451;51.550;7.208;2022-09-28T02:11:13;9.50;;;3.20;;
70829;SDS011;58451;51.550;7.208;2022-09-28T02:13:51;12.20;;;3.90;;
70829;SDS011;58451;51.550;7.208;2022-09-28T02:18:54;9.60;;;3.40;;
70829;SDS011;58451;51.550;7.208;2022-09-28T02:21:22;12.60;;;4.20;;
70829;SDS011;58451;51.550;7.208;2022-09-28T02:24:01;12.20;;;3.30;;
70829;SDS011;58451;51.550;7.208;2022-09-28T02:26:39;12.50;;;3.90;;
70829;SDS011;58451;51.550;7.208;2022-09-28T02:29:08;8.70;;;3.00;;
70829;SDS011;58451;51.550;7.208;2022-09-28T02:31:35;11.70;;;3.60;;
70829;SDS011;58451;51.550;7.208;2022-09-28T02:34:03;11.30;;;4.40;;
70829;SDS011;58451;51.550;7.208;2022-09-28T02:36:31;13.20;;;5.10;;
70829;SDS011;58451;51.550;7.208;2022-09-28T02:38:59;10.80;;;4.60;;
70829;SDS011;58451;51.550;7.208;2022-09-28T02:50:14;15.90;;;6.50;;
70829;SDS011;58451;51.550;7.208;2022-09-28T03:04:35;14.10;;;5.80;;
70829;SDS011;58451;51.550;7.208;2022-09-28T03:07:27;17.10;;;7.40;;
70829;SDS011;58451;51.550;7.208;2022-09-28T03:12:44;17.90;;;7.30;;
70829;SDS011;58451;51.550;7.208;2022-09-28T03:15:26;17.30;;;7.60;;
70829;SDS011;58451;51.550;7.208;2022-09-28T03:17:56;16.80;;;7.50;;
70829;SDS011;58451;51.550;7.208;2022-09-28T03:20:28;19.50;;;8.70;;
70829;SDS011;58451;51.550;7.208;2022-09-28T03:22:56;16.10;;;6.20;;
70829;SDS011;58451;51.550;7.208;2022-09-28T03:25:43;15.90;;;6.70;;
70829;SDS011;58451;51.550;7.208;2022-09-28T03:28:10;16.70;;;7.00;;
70829;SDS011;58451;51.550;7.208;2022-09-28T03:30:38;16.00;;;7.30;;
70829;SDS011;58451;51.550;7.208;2022-09-28T03:33:05;11.60;;;5.30;;
70829;SDS011;58451;51.550;7.208;2022-09-28T03:35:32;16.50;;;7.70;;
70829;SDS011;58451;51.550;7.208;2022-09-28T03:37:59;15.20;;;6.90;;
70829;SDS011;58451;51.550;7.208;2022-09-28T03:40:27;13.10;;;5.40;;
70829;SDS011;58451;51.550;7.208;2022-09-28T03:42:54;12.80;;;5.40;;
70829;SDS011;58451;51.550;7.208;2022-09-28T03:45:20;14.40;;;5.90;;
70829;SDS011;58451;51.550;7.208;2022-09-28T03:47:48;16.00;;;7.00;;
70829;SDS011;58451;51.550;7.208;2022-09-28T03:50:16;15.30;;;7.10;;
70829;SDS011;58451;51.550;7.208;2022-09-28T03:52:43;15.60;;;5.70;;
70829;SDS011;58451;51.550;7.208;2022-09-28T03:55:10;12.40;;;4.80;;
70829;SDS011;58451;51.550;7.208;2022-09-28T03:57:37;15.70;;;6.90;;
70829;SDS011;58451;51.550;7.208;2022-09-28T04:00:05;16.10;;;6.20;;
70829;SDS011;58451;51.550;7.208;2022-09-28T04:02:39;15.50;;;5.50;;
70829;SDS011;58451;51.550;7.208;2022-09-28T04:05:06;13.50;;;5.60;;
70829;SDS011;58451;51.550;7.208;2022-09-28T04:07:36;14.90;;;5.80;;
70829;SDS011;58451;51.550;7.208;2022-09-28T04:10:03;16.60;;;6.30;;
70829;SDS011;58451;51.550;7.208;2022-09-28T04:12:34;16.00;;;6.60;;
70829;SDS011;58451;51.550;7.208;2022-09-28T04:15:03;16.10;;;6.00;;
70829;SDS011;58451;51.550;7.208;2022-09-28T04:17:30;15.50;;;6.30;;
70829;SDS011;58451;51.550;7.208;2022-09-28T04:20:05;16.40;;;5.50;;
70829;SDS011;58451;51.550;7.208;2022-09-28T04:22:38;11.90;;;5.10;;
70829;SDS011;58451;51.550;7.208;2022-09-28T04:25:06;15.50;;;6.80;;
70829;SDS011;58451;51.550;7.208;2022-09-28T04:27:33;13.50;;;5.90;;
70829;SDS011;58451;51.550;7.208;2022-09-28T04:30:19;14.40;;;6.00;;
70829;SDS011;58451;51.550;7.208;2022-09-28T04:32:47;16.00;;;6.50;;
70829;SDS011;58451;51.550;7.208;2022-09-28T04:35:15;16.40;;;6.20;;
70829;SDS011;58451;51.550;7.208;2022-09-28T04:37:42;15.70;;;6.20;;
70829;SDS011;58451;51.550;7.208;2022-09-28T04:40:09;17.70;;;7.70;;
70829;SDS011;58451;51.550;7.208;2022-09-28T04:42:36;15.70;;;6.80;;
70829;SDS011;58451;51.550;7.208;2022-09-28T04:45:04;18.10;;;7.40;;
70829;SDS011;58451;51.550;7.208;2022-09-28T04:47:34;17.10;;;7.10;;
70829;SDS011;58451;51.550;7.208;2022-09-28T04:50:30;18.70;;;7.80;;
70829;SDS011;58451;51.550;7.208;2022-09-28T04:53:18;18.60;;;7.70;;
70829;SDS011;58451;51.550;7.208;2022-09-28T04:55:54;22.00;;;9.30;;
70829;SDS011;58451;51.550;7.208;2022-09-28T04:58:29;26.40;;;10.20;;
70829;SDS011;58451;51.550;7.208;2022-09-28T05:01:00;21.70;;;8.30;;
70829;SDS011;58451;51.550;7.208;2022-09-28T05:03:48;22.90;;;9.70;;
70829;SDS011;58451;51.550;7.208;2022-09-28T05:06:34;23.40;;;9.80;;
70829;SDS011;58451;51.550;7.208;2022-09-28T05:09:05;25.10;;;11.10;;
70829;SDS011;58451;51.550;7.208;2022-09-28T05:11:32;22.00;;;9.70;;
70829;SDS011;58451;51.550;7.208;2022-09-28T05:13:59;22.90;;;9.70;;
70829;SDS011;58451;51.550;7.208;2022-09-28T05:16:27;24.10;;;10.20;;
70829;SDS011;58451;51.550;7.208;2022-09-28T05:19:29;27.90;;;12.30;;
70829;SDS011;58451;51.550;7.208;2022-09-28T05:22:01;19.70;;;7.70;;
70829;SDS011;58451;51.550;7.208;2022-09-28T05:24:44;26.90;;;12.20;;
70829;SDS011;58451;51.550;7.208;2022-09-28T05:27:12;30.50;;;13.50;;
70829;SDS011;58451;51.550;7.208;2022-09-28T05:29:39;26.40;;;10.90;;
70829;SDS011;58451;51.550;7.208;2022-09-28T05:32:25;28.50;;;13.00;;
70829;SDS011;58451;51.550;7.208;2022-09-28T05:35:11;29.90;;;14.00;;
70829;SDS011;58451;51.550;7.208;2022-09-28T05:37:44;26.00;;;11.50;;
70829;SDS011;58451;51.550;7.208;2022-09-28T05:40:11;27.50;;;12.20;;
70829;SDS011;58451;51.550;7.208;2022-09-28T05:42:38;23.40;;;10.50;;
70829;SDS011;58451;51.550;7.208;2022-09-28T05:45:07;25.40;;;10.30;;
70829;SDS011;58451;51.550;7.208;2022-09-28T05:47:37;22.30;;;9.80;;
70829;SDS011;58451;51.550;7.208;2022-09-28T05:50:08;22.50;;;10.00;;
70829;SDS011;58451;51.550;7.208;2022-09-28T05:52:37;21.00;;;9.50;;
70829;SDS011;58451;51.550;7.208;2022-09-28T05:55:06;17.30;;;8.30;;
70829;SDS011;58451;51.550;7.208;2022-09-28T05:57:34;21.90;;;11.00;;
70829;SDS011;58451;51.550;7.208;2022-09-28T06:00:03;22.80;;;10.90;;
70829;SDS011;58451;51.550;7.208;2022-09-28T06:02:40;20.20;;;9.50;;
70829;SDS011;58451;51.550;7.208;2022-09-28T06:05:09;20.20;;;9.70;;
70829;SDS011;58451;51.550;7.208;2022-09-28T06:07:36;20.50;;;9.90;;
70829;SDS011;58451;51.550;7.208;2022-09-28T06:10:03;22.40;;;10.90;;
70829;SDS011;58451;51.550;7.208;2022-09-28T06:12:38;23.10;;;10.20;;
70829;SDS011;58451;51.550;7.208;2022-09-28T06:15:10;22.20;;;9.70;;
70829;SDS011;58451;51.550;7.208;2022-09-28T06:17:37;22.20;;;10.30;;
70829;SDS011;58451;51.550;7.208;2022-09-28T06:20:41;23.10;;;9.90;;
70829;SDS011;58451;51.550;7.208;2022-09-28T06:23:16;23.20;;;10.90;;
70829;SDS011;58451;51.550;7.208;2022-09-28T06:25:43;20.90;;;9.30;;
70829;SDS011;58451;51.550;7.208;2022-09-28T06:28:12;22.80;;;10.30;;
70829;SDS011;58451;51.550;7.208;2022-09-28T06:30:41;22.90;;;9.70;;
70829;SDS011;58451;51.550;7.208;2022-09-28T06:33:14;27.00;;;11.70;;
70829;SDS011;58451;51.550;7.208;2022-09-28T06:35:41;25.30;;;11.40;;
70829;SDS011;58451;51.550;7.208;2022-09-28T06:38:09;25.00;;;11.60;;
70829;SDS011;58451;51.550;7.208;2022-09-28T06:40:36;18.70;;;7.80;;
70829;SDS011;58451;51.550;7.208;2022-09-28T06:43:08;28.10;;;11.50;;
70829;SDS011;58451;51.550;7.208;2022-09-28T06:45:55;25.90;;;12.20;;
70829;SDS011;58451;51.550;7.208;2022-09-28T06:48:40;21.30;;;9.30;;
70829;SDS011;58451;51.550;7.208;2022-09-28T06:51:11;23.50;;;10.10;;
70829;SDS011;58451;51.550;7.208;2022-09-28T06:53:47;24.40;;;10.60;;
70829;SDS011;58451;51.550;7.208;2022-09-28T06:56:28;23.00;;;10.30;;
70829;SDS011;58451;51.550;7.208;2022-09-28T06:58:58;25.30;;;12.30;;
70829;SDS011;58451;51.550;7.208;2022-09-28T07:01:27;25.60;;;12.10;;
70829;SDS011;58451;51.550;7.208;2022-09-28T07:04:07;21.90;;;10.40;;
70829;SDS011;58451;51.550;7.208;2022-09-28T07:06:53;22.60;;;10.50;;
70829;SDS011;58451;51.550;7.208;2022-09-28T07:09:40;25.10;;;10.00;;
70829;SDS011;58451;51.550;7.208;2022-09-28T07:12:34;25.90;;;11.60;;
70829;SDS011;58451;51.550;7.208;2022-09-28T07:15:10;26.10;;;11.90;;
70829;SDS011;58451;51.550;7.208;2022-09-28T07:17:37;23.10;;;9.80;;
70829;SDS011;58451;51.550;7.208;2022-09-28T07:20:23;25.60;;;10.90;;
70829;SDS011;58451;51.550;7.208;2022-09-28T07:22:55;22.30;;;10.30;;
70829;SDS011;58451;51.550;7.208;2022-09-28T07:26:03;28.10;;;12.30;;
70829;SDS011;58451;51.550;7.208;2022-09-28T07:28:52;20.30;;;9.50;;
70829;SDS011;58451;51.550;7.208;2022-09-28T07:31:36;24.40;;;11.50;;
70829;SDS011;58451;51.550;7.208;2022-09-28T07:34:36;25.30;;;10.60;;
70829;SDS011;58451;51.550;7.208;2022-09-28T07:37:35;22.00;;;9.70;;
70829;SDS011;58451;51.550;7.208;2022-09-28T07:40:04;23.10;;;10.80;;
70829;SDS011;58451;51.550;7.208;2022-09-28T07:42:51;25.30;;;11.10;;
70829;SDS011;58451;51.550;7.208;2022-09-28T07:45:19;21.60;;;9.10;;
70829;SDS011;58451;51.550;7.208;2022-09-28T07:47:53;23.40;;;9.80;;
70829;SDS011;58451;51.550;7.208;2022-09-28T07:53:28;20.30;;;10.00;;
70829;SDS011;58451;51.550;7.208;2022-09-28T07:56:16;21.60;;;8.80;;
70829;SDS011;58451;51.550;7.208;2022-09-28T07:59:06;21.60;;;10.30;;
70829;SDS011;58451;51.550;7.208;2022-09-28T08:01:51;22.70;;;9.60;;
70829;SDS011;58451;51.550;7.208;2022-09-28T08:04:18;23.80;;;10.90;;
70829;SDS011;58451;51.550;7.208;2022-09-28T08:06:45;20.50;;;9.00;;
70829;SDS011;58451;51.550;7.208;2022-09-28T08:09:13;19.30;;;10.10;;
70829;SDS011;58451;51.550;7.208;2022-09-28T08:12:06;24.40;;;9.80;;
70829;SDS011;58451;51.550;7.208;2022-09-28T08:14:40;24.30;;;10.60;;
70829;SDS011;58451;51.550;7.208;2022-09-28T08:17:13;22.90;;;10.40;;
70829;SDS011;58451;51.550;7.208;2022-09-28T08:19:50;23.70;;;10.10;;
70829;SDS011;58451;51.550;7.208;2022-09-28T08:22:36;26.00;;;10.80;;
70829;SDS011;58451;51.550;7.208;2022-09-28T08:25:04;26.00;;;12.00;;
70829;SDS011;58451;51.550;7.208;2022-09-28T08:27:32;23.60;;;9.90;;
70829;SDS011;58451;51.550;7.208;2022-09-28T08:29:59;20.50;;;8.80;;
70829;SDS011;58451;51.550;7.208;2022-09-28T08:32:46;21.30;;;9.20;;
70829;SDS011;58451;51.550;7.208;2022-09-28T08:35:56;26.00;;;9.90;;
70829;SDS011;58451;51.550;7.208;2022-09-28T08:38:50;17.90;;;7.60;;
70829;SDS011;58451;51.550;7.208;2022-09-28T08:44:56;13.50;;;6.00;;
70829;SDS011;58451;51.550;7.208;2022-09-28T08:51:58;20.90;;;9.60;;
70829;SDS011;58451;51.550;7.208;2022-09-28T08:54:48;25.90;;;12.40;;
70829;SDS011;58451;51.550;7.208;2022-09-28T08:57:34;22.30;;;10.70;;
70829;SDS011;58451;51.550;7.208;2022-09-28T09:00:13;22.40;;;10.90;;
70829;SDS011;58451;51.550;7.208;2022-09-28T09:02:46;24.90;;;11.60;;
70829;SDS011;58451;51.550;7.208;2022-09-28T09:05:37;24.40;;;12.00;;
70829;SDS011;58451;51.550;7.208;2022-09-28T09:12:01;17.30;;;7.90;;
70829;SDS011;58451;51.550;7.208;2022-09-28T09:15:11;19.10;;;8.60;;
70829;SDS011;58451;51.550;7.208;2022-09-28T09:18:24;15.80;;;8.90;;
70829;SDS011;58451;51.550;7.208;2022-09-28T09:24:23;10.90;;;5.00;;
70829;SDS011;58451;51.550;7.208;2022-09-28T09:30:03;12.40;;;5.60;;
70829;SDS011;58451;51.550;7.208;2022-09-28T09:33:17;14.60;;;6.20;;
70829;SDS011;58451;51.550;7.208;2022-09-28T09:46:19;13.70;;;6.50;;
70829;SDS011;58451;51.550;7.208;2022-09-28T09:49:33;10.30;;;4.90;;
70829;SDS011;58451;51.550;7.208;2022-09-28T09:52:11;10.30;;;4.60;;
70829;SDS011;58451;51.550;7.208;2022-09-28T09:54:55;8.40;;;3.50;;
70829;SDS011;58451;51.550;7.208;2022-09-28T09:58:09;8.20;;;3.10;;
70829;SDS011;58451;51.550;7.208;2022-09-28T10:00:48;7.40;;;3.00;;
70829;SDS011;58451;51.550;7.208;2022-09-28T10:03:26;6.80;;;3.10;;
70829;SDS011;58451;51.550;7.208;2022-09-28T10:06:11;8.60;;;3.80;;
70829;SDS011;58451;51.550;7.208;2022-09-28T10:08:48;8.30;;;3.50;;
70829;SDS011;58451;51.550;7.208;2022-09-28T10:11:27;7.00;;;2.60;;
70829;SDS011;58451;51.550;7.208;2022-09-28T10:13:58;6.90;;;2.50;;
70829;SDS011;58451;51.550;7.208;2022-09-28T10:16:40;6.80;;;3.00;;
70829;SDS011;58451;51.550;7.208;2022-09-28T10:19:18;5.10;;;2.10;;
70829;SDS011;58451;51.550;7.208;2022-09-28T10:22:05;6.10;;;2.70;;
70829;SDS011;58451;51.550;7.208;2022-09-28T10:24:42;5.20;;;2.00;;
70829;SDS011;58451;51.550;7.208;2022-09-28T10:27:17;6.50;;;2.90;;
70829;SDS011;58451;51.550;7.208;2022-09-28T10:32:47;7.80;;;2.80;;
70829;SDS011;58451;51.550;7.208;2022-09-28T10:35:40;7.40;;;3.50;;
70829;SDS011;58451;51.550;7.208;2022-09-28T10:38:18;6.90;;;3.40;;
70829;SDS011;58451;51.550;7.208;2022-09-28T10:40:51;8.20;;;3.40;;
70829;SDS011;58451;51.550;7.208;2022-09-28T10:46:06;7.30;;;3.40;;
70829;SDS011;58451;51.550;7.208;2022-09-28T10:51:18;6.90;;;4.20;;
70829;SDS011;58451;51.550;7.208;2022-09-28T10:53:59;8.20;;;4.20;;
70829;SDS011;58451;51.550;7.208;2022-09-28T10:56:55;6.50;;;3.80;;
70829;SDS011;58451;51.550;7.208;2022-09-28T10:59:38;6.70;;;3.90;;
70829;SDS011;58451;51.550;7.208;2022-09-28T11:05:19;6.40;;;3.20;;
70829;SDS011;58451;51.550;7.208;2022-09-28T11:07:48;4.80;;;2.50;;
70829;SDS011;58451;51.550;7.208;2022-09-28T11:10:29;5.50;;;2.50;;
70829;SDS011;58451;51.550;7.208;2022-09-28T11:13:08;5.60;;;2.20;;
70829;SDS011;58451;51.550;7.208;2022-09-28T11:15:40;4.60;;;2.30;;
70829;SDS011;58451;51.550;7.208;2022-09-28T11:18:28;3.80;;;1.90;;
70829;SDS011;58451;51.550;7.208;2022-09-28T11:21:25;4.20;;;2.00;;
70829;SDS011;58451;51.550;7.208;2022-09-28T11:24:20;6.00;;;2.20;;
70829;SDS011;58451;51.550;7.208;2022-09-28T11:26:56;5.90;;;2.30;;
70829;SDS011;58451;51.550;7.208;2022-09-28T11:29:39;4.00;;;2.10;;
70829;SDS011;58451;51.550;7.208;2022-09-28T11:32:44;5.60;;;2.50;;
70829;SDS011;58451;51.550;7.208;2022-09-28T11:35:25;4.30;;;2.00;;
70829;SDS011;58451;51.550;7.208;2022-09-28T11:44:45;5.60;;;2.80;;
70829;SDS011;58451;51.550;7.208;2022-09-28T11:58:58;8.70;;;4.50;;
70829;SDS011;58451;51.550;7.208;2022-09-28T12:01:47;11.70;;;4.00;;
70829;SDS011;58451;51.550;7.208;2022-09-28T12:07:15;7.20;;;3.60;;
70829;SDS011;58451;51.550;7.208;2022-09-28T12:09:50;7.70;;;3.50;;
70829;SDS011;58451;51.550;7.208;2022-09-28T12:12:37;5.70;;;3.10;;
70829;SDS011;58451;51.550;7.208;2022-09-28T12:15:31;5.40;;;2.90;;
70829;SDS011;58451;51.550;7.208;2022-09-28T12:21:54;5.00;;;2.40;;
70829;SDS011;58451;51.550;7.208;2022-09-28T12:24:33;9.60;;;2.90;;
70829;SDS011;58451;51.550;7.208;2022-09-28T12:29:42;5.00;;;1.70;;
70829;SDS011;58451;51.550;7.208;2022-09-28T12:32:40;4.80;;;1.70;;
70829;SDS011;58451;51.550;7.208;2022-09-28T12:38:51;6.40;;;2.10;;
70829;SDS011;58451;51.550;7.208;2022-09-28T12:42:00;5.50;;;2.30;;
70829;SDS011;58451;51.550;7.208;2022-09-28T12:45:05;3.90;;;1.30;;
70829;SDS011;58451;51.550;7.208;2022-09-28T12:48:00;6.10;;;2.10;;
70829;SDS011;58451;51.550;7.208;2022-09-28T12:50:45;6.80;;;2.40;;
70829;SDS011;58451;51.550;7.208;2022-09-28T12:53:53;6.60;;;2.80;;
70829;SDS011;58451;51.550;7.208;2022-09-28T12:56:59;5.60;;;2.50;;
70829;SDS011;58451;51.550;7.208;2022-09-28T12:59:56;6.10;;;2.90;;
70829;SDS011;58451;51.550;7.208;2022-09-28T13:11:58;6.80;;;3.30;;
70829;SDS011;58451;51.550;7.208;2022-09-28T13:18:06;7.30;;;3.20;;
70829;SDS011;58451;51.550;7.208;2022-09-28T13:23:46;7.60;;;3.10;;
70829;SDS011;58451;51.550;7.208;2022-09-28T13:26:21;7.50;;;3.20;;
70829;SDS011;58451;51.550;7.208;2022-09-28T13:28:59;6.70;;;2.80;;
70829;SDS011;58451;51.550;7.208;2022-09-28T13:31:31;5.00;;;2.80;;
70829;SDS011;58451;51.550;7.208;2022-09-28T13:34:03;8.20;;;3.20;;
70829;SDS011;58451;51.550;7.208;2022-09-28T13:36:34;6.40;;;3.10;;
70829;SDS011;58451;51.550;7.208;2022-09-28T13:39:02;7.70;;;3.40;;
70829;SDS011;58451;51.550;7.208;2022-09-28T13:41:49;6.80;;;3.20;;
70829;SDS011;58451;51.550;7.208;2022-09-28T13:45:12;8.60;;;3.50;;
70829;SDS011;58451;51.550;7.208;2022-09-28T13:47:50;5.80;;;2.80;;
70829;SDS011;58451;51.550;7.208;2022-09-28T13:54:21;7.50;;;3.30;;
70829;SDS011;58451;51.550;7.208;2022-09-28T14:02:55;7.20;;;2.80;;
70829;SDS011;58451;51.550;7.208;2022-09-28T14:05:34;6.70;;;2.50;;
70829;SDS011;58451;51.550;7.208;2022-09-28T14:08:25;5.70;;;2.50;;
70829;SDS011;58451;51.550;7.208;2022-09-28T14:16:38;8.40;;;3.70;;
70829;SDS011;58451;51.550;7.208;2022-09-28T14:19:20;5.90;;;3.40;;
70829;SDS011;58451;51.550;7.208;2022-09-28T14:25:10;7.10;;;3.50;;
70829;SDS011;58451;51.550;7.208;2022-09-28T14:30:47;7.10;;;3.50;;
70829;SDS011;58451;51.550;7.208;2022-09-28T14:33:29;6.50;;;3.20;;
70829;SDS011;58451;51.550;7.208;2022-09-28T14:36:00;7.10;;;3.80;;
70829;SDS011;58451;51.550;7.208;2022-09-28T14:38:35;6.00;;;3.00;;
70829;SDS011;58451;51.550;7.208;2022-09-28T14:41:43;5.20;;;3.10;;
70829;SDS011;58451;51.550;7.208;2022-09-28T14:44:12;7.60;;;3.50;;
70829;SDS011;58451;51.550;7.208;2022-09-28T14:54:20;7.70;;;3.70;;
70829;SDS011;58451;51.550;7.208;2022-09-28T14:57:16;8.30;;;3.40;;
70829;SDS011;58451;51.550;7.208;2022-09-28T14:59:44;8.70;;;3.70;;
70829;SDS011;58451;51.550;7.208;2022-09-28T15:09:54;7.10;;;3.50;;
70829;SDS011;58451;51.550;7.208;2022-09-28T15:12:30;5.20;;;2.60;;
70829;SDS011;58451;51.550;7.208;2022-09-28T15:15:00;5.60;;;3.20;;
70829;SDS011;58451;51.550;7.208;2022-09-28T15:17:33;5.30;;;2.90;;
70829;SDS011;58451;51.550;7.208;2022-09-28T15:20:26;5.00;;;2.70;;
70829;SDS011;58451;51.550;7.208;2022-09-28T15:22:58;3.40;;;1.70;;
70829;SDS011;58451;51.550;7.208;2022-09-28T15:25:28;5.00;;;1.90;;
70829;SDS011;58451;51.550;7.208;2022-09-28T15:27:59;4.10;;;1.70;;
70829;SDS011;58451;51.550;7.208;2022-09-28T15:30:34;5.10;;;2.00;;
70829;SDS011;58451;51.550;7.208;2022-09-28T15:33:03;5.90;;;2.10;;
70829;SDS011;58451;51.550;7.208;2022-09-28T15:36:01;5.10;;;1.90;;
70829;SDS011;58451;51.550;7.208;2022-09-28T15:38:31;4.00;;;1.70;;
70829;SDS011;58451;51.550;7.208;2022-09-28T15:41:04;3.20;;;1.40;;
70829;SDS011;58451;51.550;7.208;2022-09-28T15:43:33;4.10;;;1.60;;
70829;SDS011;58451;51.550;7.208;2022-09-28T15:48:50;5.20;;;1.70;;
70829;SDS011;58451;51.550;7.208;2022-09-28T15:51:25;3.80;;;1.60;;
70829;SDS011;58451;51.550;7.208;2022-09-28T15:54:01;6.80;;;2.00;;
70829;SDS011;58451;51.550;7.208;2022-09-28T15:56:58;4.50;;;1.50;;
70829;SDS011;58451;51.550;7.208;2022-09-28T15:59:31;5.20;;;1.80;;
70829;SDS011;58451;51.550;7.208;2022-09-28T16:02:13;4.60;;;2.10;;
70829;SDS011;58451;51.550;7.208;2022-09-28T16:04:58;4.80;;;2.00;;
70829;SDS011;58451;51.550;7.208;2022-09-28T16:07:35;4.60;;;1.70;;
70829;SDS011;58451;51.550;7.208;2022-09-28T16:15:30;6.80;;;2.90;;
70829;SDS011;58451;51.550;7.208;2022-09-28T16:18:20;6.20;;;2.50;;
70829;SDS011;58451;51.550;7.208;2022-09-28T16:20:51;5.30;;;2.50;;
70829;SDS011;58451;51.550;7.208;2022-09-28T16:25:58;6.50;;;3.00;;
70829;SDS011;58451;51.550;7.208;2022-09-28T16:31:21;6.90;;;2.90;;
70829;SDS011;58451;51.550;7.208;2022-09-28T16:36:42;10.80;;;3.00;;
70829;SDS011;58451;51.550;7.208;2022-09-28T16:39:12;6.80;;;3.10;;
70829;SDS011;58451;51.550;7.208;2022-09-28T16:41:52;4.50;;;2.10;;
70829;SDS011;58451;51.550;7.208;2022-09-28T16:44:26;5.90;;;2.40;;
70829;SDS011;58451;51.550;7.208;2022-09-28T16:46:58;6.50;;;2.40;;
70829;SDS011;58451;51.550;7.208;2022-09-28T16:49:26;3.40;;;1.40;;
70829;SDS011;58451;51.550;7.208;2022-09-28T16:51:54;7.80;;;2.30;;
70829;SDS011;58451;51.550;7.208;2022-09-28T16:54:22;5.70;;;2.20;;
70829;SDS011;58451;51.550;7.208;2022-09-28T16:57:11;3.50;;;1.10;;
70829;SDS011;58451;51.550;7.208;2022-09-28T16:59:41;5.50;;;1.20;;
70829;SDS011;58451;51.550;7.208;2022-09-28T17:02:16;5.70;;;1.40;;
70829;SDS011;58451;51.550;7.208;2022-09-28T17:05:05;5.20;;;1.40;;
70829;SDS011;58451;51.550;7.208;2022-09-28T17:07:32;6.30;;;1.20;;
70829;SDS011;58451;51.550;7.208;2022-09-28T17:09:59;4.90;;;1.20;;
70829;SDS011;58451;51.550;7.208;2022-09-28T17:12:26;5.60;;;1.20;;
70829;SDS011;58451;51.550;7.208;2022-09-28T17:14:54;3.50;;;0.90;;
70829;SDS011;58451;51.550;7.208;2022-09-28T17:17:21;4.00;;;1.10;;
70829;SDS011;58451;51.550;7.208;2022-09-28T17:19:48;3.20;;;0.80;;
70829;SDS011;58451;51.550;7.208;2022-09-28T17:22:14;3.80;;;1.10;;
70829;SDS011;58451;51.550;7.208;2022-09-28T17:24:42;4.30;;;1.00;;
70829;SDS011;58451;51.550;7.208;2022-09-28T17:27:15;5.90;;;1.00;;
70829;SDS011;58451;51.550;7.208;2022-09-28T17:29:46;4.90;;;1.00;;
70829;SDS011;58451;51.550;7.208;2022-09-28T17:32:17;3.60;;;0.80;;
70829;SDS011;58451;51.550;7.208;2022-09-28T17:34:44;5.40;;;1.00;;
70829;SDS011;58451;51.550;7.208;2022-09-28T17:37:31;4.10;;;0.90;;
70829;SDS011;58451;51.550;7.208;2022-09-28T17:40:06;6.00;;;1.40;;
70829;SDS011;58451;51.550;7.208;2022-09-28T17:42:41;4.60;;;1.10;;
70829;SDS011;58451;51.550;7.208;2022-09-28T17:45:08;4.70;;;0.90;;
70829;SDS011;58451;51.550;7.208;2022-09-28T17:47:35;3.80;;;0.90;;
70829;SDS011;58451;51.550;7.208;2022-09-28T17:50:30;3.40;;;0.80;;
70829;SDS011;58451;51.550;7.208;2022-09-28T17:52:58;3.50;;;0.80;;
70829;SDS011;58451;51.550;7.208;2022-09-28T17:55:33;3.20;;;0.70;;
70829;SDS011;58451;51.550;7.208;2022-09-28T17:58:13;6.40;;;1.00;;
70829;SDS011;58451;51.550;7.208;2022-09-28T18:00:49;2.80;;;0.60;;
70829;SDS011;58451;51.550;7.208;2022-09-28T18:03:21;2.50;;;0.70;;
70829;SDS011;58451;51.550;7.208;2022-09-28T18:06:05;3.50;;;0.80;;
70829;SDS011;58451;51.550;7.208;2022-09-28T18:08:33;3.10;;;0.80;;
70829;SDS011;58451;51.550;7.208;2022-09-28T18:11:02;4.30;;;0.80;;
70829;SDS011;58451;51.550;7.208;2022-09-28T18:13:29;4.10;;;0.90;;
70829;SDS011;58451;51.550;7.208;2022-09-28T18:15:56;2.90;;;0.70;;
70829;SDS011;58451;51.550;7.208;2022-09-28T18:18:23;2.60;;;0.60;;
70829;SDS011;58451;51.550;7.208;2022-09-28T18:20:51;3.80;;;0.80;;
70829;SDS011;58451;51.550;7.208;2022-09-28T18:23:18;2.00;;;0.50;;
70829;SDS011;58451;51.550;7.208;2022-09-28T18:25:45;3.30;;;0.60;;
70829;SDS011;58451;51.550;7.208;2022-09-28T18:28:13;3.50;;;0.90;;
70829;SDS011;58451;51.550;7.208;2022-09-28T18:30:43;3.60;;;0.80;;
70829;SDS011;58451;51.550;7.208;2022-09-28T18:33:13;3.90;;;1.20;;
70829;SDS011;58451;51.550;7.208;2022-09-28T18:35:49;4.60;;;1.40;;
70829;SDS011;58451;51.550;7.208;2022-09-28T18:38:18;4.40;;;1.30;;
70829;SDS011;58451;51.550;7.208;2022-09-28T18:40:46;4.60;;;1.10;;
70829;SDS011;58451;51.550;7.208;2022-09-28T18:43:14;3.90;;;1.30;;
70829;SDS011;58451;51.550;7.208;2022-09-28T18:45:42;4.20;;;1.10;;